createdAt,value
2022-10-29T00:01:10.261Z,13.43
2022-10-29T00:03:38.595Z,14.60
2022-10-29T00:06:10.584Z,13.23
2022-10-29T00:08:40.498Z,12.73
2022-10-29T00:11:13.777Z,12.90
2022-10-29T00:13:42.853Z,12.83
2022-10-29T00:16:13.125Z,12.50
2022-10-29T00:18:41.461Z,12.73
2022-10-29T00:21:12.569Z,12.30
2022-10-29T00:23:41.056Z,11.80
2022-10-29T00:26:10.821Z,13.17
2022-10-29T00:28:39.104Z,12.70
2022-10-29T00:31:08.401Z,11.93
2022-10-29T00:33:39.835Z,12.37
2022-10-29T00:36:10.967Z,12.00
2022-10-29T00:38:38.933Z,12.00
2022-10-29T00:41:09.264Z,12.70
2022-10-29T00:43:40.044Z,12.13
2022-10-29T00:46:12.751Z,10.87
2022-10-29T00:48:44.786Z,11.17
2022-10-29T00:51:15.789Z,11.70
2022-10-29T00:53:46.397Z,11.57
2022-10-29T00:56:15.013Z,12.43
2022-10-29T00:58:45.703Z,13.17
2022-10-29T01:01:14.670Z,12.17
2022-10-29T01:03:43.174Z,13.00
2022-10-29T01:06:11.429Z,15.00
2022-10-29T01:08:39.741Z,13.37
2022-10-29T01:11:18.265Z,15.50
2022-10-29T01:14:01.961Z,14.93
2022-10-29T01:16:40.929Z,15.73
2022-10-29T01:19:17.960Z,16.70
2022-10-29T01:21:47.025Z,16.70
2022-10-29T01:24:49.567Z,14.23
2022-10-29T01:27:48.858Z,15.23
2022-10-29T01:30:35.306Z,16.70
2022-10-29T01:33:11.753Z,17.93
2022-10-29T01:35:48.413Z,16.90
2022-10-29T01:38:26.073Z,15.50
2022-10-29T01:41:04.173Z,15.10
2022-10-29T01:43:36.945Z,15.37
2022-10-29T01:46:11.185Z,16.63
2022-10-29T01:48:50.338Z,15.63
2022-10-29T01:51:22.296Z,16.40
2022-10-29T01:53:50.979Z,17.53
2022-10-29T01:56:18.978Z,14.93
2022-10-29T01:58:50.950Z,14.37
2022-10-29T02:01:35.843Z,14.80
2022-10-29T02:04:23.929Z,17.27
2022-10-29T02:07:03.450Z,18.70
2022-10-29T02:09:38.590Z,14.67
2022-10-29T02:12:15.726Z,15.10
2022-10-29T02:14:50.133Z,17.07
2022-10-29T02:17:18.600Z,17.23
2022-10-29T02:19:47.977Z,20.00
2022-10-29T02:22:16.057Z,17.47
2022-10-29T02:24:44.237Z,17.30
2022-10-29T02:27:12.233Z,16.47
2022-10-29T02:29:40.262Z,17.33
2022-10-29T02:32:08.325Z,16.30
2022-10-29T02:34:44.219Z,17.53
2022-10-29T02:37:14.916Z,17.27
2022-10-29T02:39:42.881Z,17.30
2022-10-29T02:42:11.071Z,17.70
2022-10-29T02:44:39.100Z,15.33
2022-10-29T02:47:07.074Z,15.73
2022-10-29T02:49:35.060Z,17.27
2022-10-29T02:52:03.080Z,17.60
2022-10-29T02:54:32.662Z,16.07
2022-10-29T02:57:00.981Z,17.57
2022-10-29T02:59:28.952Z,16.20
2022-10-29T03:01:57.038Z,19.57
2022-10-29T03:04:25.050Z,15.90
2022-10-29T03:06:53.402Z,17.83
2022-10-29T03:09:21.449Z,18.77
2022-10-29T03:11:50.806Z,18.27
2022-10-29T03:14:18.794Z,17.27
2022-10-29T03:16:46.719Z,16.93
2022-10-29T03:19:14.797Z,19.30
2022-10-29T03:21:42.723Z,17.20
2022-10-29T03:24:10.649Z,18.10
2022-10-29T03:26:38.713Z,16.57
2022-10-29T03:29:08.121Z,16.83
2022-10-29T03:31:36.302Z,15.33
2022-10-29T03:34:04.358Z,15.90
2022-10-29T03:36:32.398Z,16.50
2022-10-29T03:39:00.382Z,16.50
2022-10-29T03:41:28.357Z,17.70
2022-10-29T03:46:26.174Z,14.23
2022-10-29T03:48:54.111Z,14.00
2022-10-29T03:51:22.083Z,14.10
2022-10-29T03:53:50.019Z,15.33
2022-10-29T03:56:18.070Z,14.20
2022-10-29T03:58:46.001Z,15.40
2022-10-29T04:01:13.996Z,13.63
2022-10-29T04:03:44.023Z,14.20
2022-10-29T04:06:14.162Z,13.73
2022-10-29T04:08:42.200Z,15.70
2022-10-29T04:11:12.501Z,14.17
2022-10-29T04:13:40.960Z,14.17
2022-10-29T04:16:09.388Z,15.10
2022-10-29T04:18:37.380Z,15.40
2022-10-29T04:27:24.755Z,13.17
2022-10-29T04:29:31.852Z,13.60
2022-10-29T04:31:59.940Z,13.20
2022-10-29T04:34:27.887Z,12.33
2022-10-29T04:36:57.392Z,13.37
2022-10-29T04:39:25.572Z,12.83
2022-10-29T04:41:53.713Z,13.00
2022-10-29T04:44:21.740Z,12.63
2022-10-29T04:46:49.933Z,11.63
2022-10-29T04:49:18.087Z,12.00
2022-10-29T04:51:46.165Z,13.60
2022-10-29T04:54:15.574Z,12.60
2022-10-29T04:56:43.557Z,11.77
2022-10-29T04:59:11.694Z,12.37
2022-10-29T05:01:39.872Z,11.33
2022-10-29T05:04:08.243Z,12.10
2022-10-29T05:06:36.222Z,12.37
2022-10-29T05:09:04.717Z,13.03
2022-10-29T05:11:34.046Z,11.87
2022-10-29T05:14:01.984Z,11.30
2022-10-29T05:16:30.053Z,11.33
2022-10-29T05:18:58.103Z,11.80
2022-10-29T05:21:26.269Z,14.90
2022-10-29T05:23:54.409Z,11.83
2022-10-29T05:26:22.438Z,13.10
2022-10-29T05:28:52.314Z,13.00
2022-10-29T05:31:20.289Z,13.40
2022-10-29T05:33:51.125Z,12.40
2022-10-29T05:36:22.000Z,13.47
2022-10-29T05:38:50.036Z,13.70
2022-10-29T05:41:18.593Z,11.40
2022-10-29T05:43:51.333Z,10.87
2022-10-29T05:46:19.373Z,11.10
2022-10-29T05:48:47.476Z,12.17
2022-10-29T05:51:16.223Z,9.70
2022-10-29T05:53:44.237Z,14.10
2022-10-29T05:56:12.206Z,10.00
2022-10-29T05:58:40.434Z,10.60
2022-10-29T06:01:12.048Z,12.47
2022-10-29T06:03:40.493Z,14.60
2022-10-29T06:06:09.064Z,15.87
2022-10-29T06:08:38.685Z,32.93
2022-10-29T06:11:06.723Z,16.60
2022-10-29T06:13:34.791Z,27.70
2022-10-29T06:16:02.750Z,12.37
2022-10-29T06:18:32.096Z,11.47
2022-10-29T06:21:00.941Z,23.67
2022-10-29T06:23:29.932Z,13.57
2022-10-29T06:26:00.182Z,12.27
2022-10-29T06:28:33.718Z,13.73
2022-10-29T06:31:03.085Z,11.33
2022-10-29T06:33:32.554Z,9.50
2022-10-29T06:36:01.336Z,10.10
2022-10-29T06:38:29.523Z,9.37
2022-10-29T06:40:57.442Z,9.17
2022-10-29T06:43:25.385Z,9.50
2022-10-29T06:45:53.385Z,9.50
2022-10-29T06:48:22.725Z,10.83
2022-10-29T06:50:52.512Z,11.00
2022-10-29T06:53:21.403Z,9.70
2022-10-29T06:55:49.448Z,11.00
2022-10-29T06:58:19.352Z,10.93
2022-10-29T07:00:48.162Z,12.03
2022-10-29T07:03:17.308Z,10.70
2022-10-29T07:05:46.003Z,11.07
2022-10-29T07:08:18.038Z,10.70
2022-10-29T07:10:46.380Z,9.70
2022-10-29T07:13:14.296Z,11.17
2022-10-29T07:15:42.257Z,9.50
2022-10-29T07:18:12.282Z,9.27
2022-10-29T07:20:45.906Z,8.83
2022-10-29T07:23:15.558Z,7.23
2022-10-29T07:25:43.918Z,9.20
2022-10-29T07:28:13.794Z,9.17
2022-10-29T07:30:42.305Z,8.40
2022-10-29T07:33:11.843Z,8.87
2022-10-29T07:35:40.518Z,9.27
2022-10-29T07:38:11.209Z,10.87
2022-10-29T07:40:46.795Z,8.70
2022-10-29T07:43:14.910Z,9.33
2022-10-29T07:45:43.942Z,9.10
2022-10-29T07:48:12.077Z,8.87
2022-10-29T07:50:40.478Z,8.17
2022-10-29T07:53:09.324Z,8.80
2022-10-29T07:55:37.401Z,7.73
2022-10-29T07:58:08.926Z,7.40
2022-10-29T08:00:39.576Z,9.60
2022-10-29T08:03:08.311Z,10.23
2022-10-29T08:05:36.887Z,9.60
2022-10-29T08:08:05.574Z,10.53
2022-10-29T08:10:34.373Z,10.67
2022-10-29T08:13:04.526Z,11.77
2022-10-29T08:15:34.799Z,10.70
2022-10-29T08:18:04.832Z,8.60
2022-10-29T08:20:32.752Z,10.50
2022-10-29T08:23:01.727Z,9.00
2022-10-29T08:25:30.466Z,10.03
2022-10-29T08:28:02.413Z,10.00
2022-10-29T08:30:31.231Z,9.00
2022-10-29T08:33:01.599Z,8.50
2022-10-29T08:35:30.695Z,8.40
2022-10-29T08:37:58.928Z,8.53
2022-10-29T08:40:32.617Z,10.50
2022-10-29T08:43:46.998Z,8.97
2022-10-29T08:46:19.307Z,9.10
2022-10-29T08:48:54.485Z,9.10
2022-10-29T08:51:26.803Z,9.10
2022-10-29T08:56:50.750Z,9.30
2022-10-29T08:59:22.188Z,7.27
2022-10-29T09:01:50.531Z,5.87
2022-10-29T09:04:25.604Z,8.20
2022-10-29T09:07:19.596Z,8.30
2022-10-29T09:09:53.845Z,8.60
2022-10-29T09:12:41.352Z,7.97
2022-10-29T09:15:45.181Z,8.83
2022-10-29T09:18:40.575Z,7.87
2022-10-29T09:21:22.214Z,7.07
2022-10-29T09:24:05.043Z,7.93
2022-10-29T09:26:40.373Z,7.43
2022-10-29T09:29:36.190Z,7.40
2022-10-29T09:32:08.656Z,7.73
2022-10-29T09:34:43.393Z,10.53
2022-10-29T09:37:21.765Z,8.00
2022-10-29T09:39:50.535Z,7.40
2022-10-29T09:42:22.996Z,7.40
2022-10-29T09:44:55.711Z,6.90
2022-10-29T09:47:39.629Z,6.97
2022-10-29T09:50:15.779Z,6.80
2022-10-29T09:52:47.093Z,6.47
2022-10-29T09:55:21.888Z,6.50
2022-10-29T09:57:50.840Z,7.40
2022-10-29T10:00:22.536Z,6.30
2022-10-29T10:02:55.864Z,6.10
2022-10-29T10:05:27.243Z,6.27
2022-10-29T10:08:08.807Z,5.80
2022-10-29T10:10:39.840Z,5.60
2022-10-29T10:13:17.008Z,5.10
2022-10-29T10:15:53.505Z,5.80
2022-10-29T10:18:24.014Z,5.90
2022-10-29T10:21:04.146Z,5.87
2022-10-29T10:23:43.225Z,5.53
2022-10-29T10:26:33.577Z,4.90
2022-10-29T10:29:13.527Z,5.80
2022-10-29T10:31:42.253Z,5.67
2022-10-29T10:34:16.308Z,5.47
2022-10-29T10:36:47.322Z,6.43
2022-10-29T10:39:26.912Z,5.50
2022-10-29T10:41:56.748Z,6.00
2022-10-29T10:44:26.048Z,6.47
2022-10-29T10:46:56.856Z,5.90
2022-10-29T10:49:32.819Z,6.40
2022-10-29T10:52:04.156Z,6.47
2022-10-29T10:54:46.597Z,12.50
2022-10-29T10:57:23.343Z,7.90
2022-10-29T10:59:59.703Z,6.63
2022-10-29T11:02:40.555Z,6.10
2022-10-29T11:05:17.680Z,6.80
2022-10-29T11:07:53.109Z,7.03
2022-10-29T11:10:32.229Z,5.93
2022-10-29T11:13:04.397Z,6.37
2022-10-29T11:15:38.776Z,6.30
2022-10-29T11:20:55.959Z,6.77
2022-10-29T11:23:32.495Z,7.90
2022-10-29T11:26:09.045Z,7.90
2022-10-29T11:28:41.917Z,7.80
2022-10-29T11:31:20.576Z,7.77
2022-10-29T11:34:00.023Z,7.53
2022-10-29T11:36:33.748Z,6.90
2022-10-29T11:39:05.855Z,6.30
2022-10-29T11:41:42.257Z,6.60
2022-10-29T11:44:12.597Z,7.43
2022-10-29T11:46:49.399Z,7.43
2022-10-29T11:49:32.052Z,6.73
2022-10-29T11:52:09.285Z,7.60
2022-10-29T11:54:56.255Z,6.93
2022-10-29T11:57:32.386Z,6.97
2022-10-29T12:00:14.769Z,6.47
2022-10-29T12:03:08.079Z,6.90
2022-10-29T12:05:43.120Z,7.23
2022-10-29T12:08:24.216Z,7.37
2022-10-29T12:11:00.343Z,5.97
2022-10-29T12:13:40.814Z,6.67
2022-10-29T12:16:17.865Z,5.60
2022-10-29T12:18:51.662Z,5.40
2022-10-29T12:21:27.889Z,5.43
2022-10-29T12:24:12.583Z,6.00
2022-10-29T12:26:47.593Z,6.00
2022-10-29T12:29:22.999Z,6.70
2022-10-29T12:31:58.097Z,4.97
2022-10-29T12:34:32.124Z,6.33
2022-10-29T12:37:08.537Z,5.00
2022-10-29T12:39:40.213Z,5.07
2022-10-29T12:42:16.335Z,4.97
2022-10-29T12:44:52.445Z,5.10
2022-10-29T12:47:25.760Z,5.33
2022-10-29T12:50:03.945Z,5.00
2022-10-29T12:52:41.047Z,4.53
2022-10-29T12:55:13.462Z,4.50
2022-10-29T12:57:41.660Z,4.57
2022-10-29T13:00:48.623Z,4.73
2022-10-29T13:03:59.863Z,4.50
2022-10-29T13:06:47.829Z,4.50
2022-10-29T13:09:21.041Z,5.03
2022-10-29T13:11:51.411Z,4.60
2022-10-29T13:14:28.544Z,4.40
2022-10-29T13:16:59.121Z,5.37
2022-10-29T13:19:55.109Z,19.10
2022-10-29T13:22:58.961Z,6.23
2022-10-29T13:25:49.192Z,4.90
2022-10-29T13:28:50.503Z,11.40
2022-10-29T13:31:51.832Z,11.43
2022-10-29T13:34:52.946Z,14.37
2022-10-29T13:37:54.624Z,6.67
2022-10-29T13:41:02.262Z,5.90
2022-10-29T13:43:32.444Z,5.50
2022-10-29T13:46:28.215Z,5.40
2022-10-29T13:48:58.218Z,5.07
2022-10-29T13:51:38.012Z,5.67
2022-10-29T13:54:11.117Z,6.50
2022-10-29T13:56:54.197Z,5.30
2022-10-29T13:59:28.995Z,4.97
2022-10-29T14:02:15.743Z,6.20
2022-10-29T14:04:50.373Z,5.67
2022-10-29T14:07:24.766Z,5.40
2022-10-29T14:09:56.080Z,5.60
2022-10-29T14:12:30.585Z,5.93
2022-10-29T14:15:05.093Z,5.30
2022-10-29T14:17:33.158Z,6.93
2022-10-29T14:20:01.160Z,5.83
2022-10-29T14:22:40.696Z,5.83
2022-10-29T14:25:34.281Z,6.37
2022-10-29T14:28:18.878Z,12.03
2022-10-29T14:30:47.937Z,5.20
2022-10-29T14:33:24.246Z,5.33
2022-10-29T14:35:53.743Z,4.63
2022-10-29T14:38:31.107Z,5.40
2022-10-29T14:40:59.156Z,5.30
2022-10-29T14:43:29.269Z,4.80
2022-10-29T14:46:09.802Z,5.53
2022-10-29T14:48:38.956Z,9.30
2022-10-29T14:51:07.217Z,6.33
2022-10-29T14:53:39.607Z,6.13
2022-10-29T14:56:12.176Z,5.40
2022-10-29T14:58:42.138Z,5.37
2022-10-29T15:01:15.543Z,5.70
2022-10-29T15:03:45.512Z,6.73
2022-10-29T15:06:16.886Z,7.13
2022-10-29T15:08:47.314Z,6.40
2022-10-29T15:11:37.286Z,5.83
2022-10-29T15:14:23.129Z,6.53
2022-10-29T15:16:51.281Z,6.03
2022-10-29T15:19:22.757Z,8.57
2022-10-29T15:21:51.176Z,7.07
2022-10-29T15:24:26.440Z,7.87
2022-10-29T15:26:58.575Z,7.90
2022-10-29T15:29:34.180Z,7.47
2022-10-29T15:32:04.405Z,7.10
2022-10-29T15:34:34.294Z,6.93
2022-10-29T15:37:21.556Z,7.47
2022-10-29T15:40:12.205Z,7.30
2022-10-29T15:42:40.513Z,8.30
2022-10-29T15:45:26.158Z,8.90
2022-10-29T15:47:57.974Z,7.87
2022-10-29T15:50:29.485Z,9.73
2022-10-29T15:53:01.699Z,7.77
2022-10-29T15:55:32.745Z,6.33
2022-10-29T15:58:03.748Z,6.70
2022-10-29T16:00:32.898Z,7.47
2022-10-29T16:03:14.058Z,7.93
2022-10-29T16:05:42.843Z,7.80
2022-10-29T16:08:23.695Z,9.20
2022-10-29T16:10:54.032Z,10.83
2022-10-29T16:13:23.033Z,8.57
2022-10-29T16:15:51.159Z,7.77
2022-10-29T16:18:19.182Z,8.77
2022-10-29T16:20:47.277Z,10.30
2022-10-29T16:23:15.621Z,9.87
2022-10-29T16:25:43.859Z,9.50
2022-10-29T16:28:13.386Z,10.00
2022-10-29T16:30:41.565Z,8.80
2022-10-29T16:33:11.767Z,10.77
2022-10-29T16:35:39.716Z,10.00
2022-10-29T16:38:07.793Z,10.90
2022-10-29T16:40:35.869Z,10.00
2022-10-29T16:43:03.905Z,8.50
2022-10-29T16:45:33.434Z,9.07
2022-10-29T16:48:01.983Z,9.83
2022-10-29T16:50:32.555Z,8.70
2022-10-29T16:53:01.966Z,10.03
2022-10-29T16:55:30.987Z,12.13
2022-10-29T16:57:59.584Z,10.50
2022-10-29T17:00:31.541Z,8.70
2022-10-29T17:03:09.994Z,10.80
2022-10-29T17:05:41.535Z,13.00
2022-10-29T17:08:09.967Z,12.27
2022-10-29T17:10:38.505Z,13.00
2022-10-29T17:13:08.959Z,12.80
2022-10-29T17:15:40.767Z,11.70
2022-10-29T17:18:10.400Z,11.80
2022-10-29T17:20:38.569Z,13.07
2022-10-29T17:23:06.641Z,12.50
2022-10-29T17:25:35.585Z,12.53
2022-10-29T17:28:04.768Z,13.60
2022-10-29T17:30:33.058Z,11.77
2022-10-29T17:33:01.368Z,11.40
2022-10-29T17:35:30.804Z,14.30
2022-10-29T17:37:58.992Z,15.70
2022-10-29T17:40:27.573Z,12.17
2022-10-29T17:42:55.897Z,13.27
2022-10-29T17:45:24.541Z,14.77
2022-10-29T17:47:57.183Z,14.73
2022-10-29T17:50:26.567Z,14.00
2022-10-29T17:52:58.110Z,11.40
2022-10-29T17:55:26.706Z,11.97
2022-10-29T17:57:55.187Z,15.27
2022-10-29T18:00:26.624Z,13.87
2022-10-29T18:02:54.801Z,16.23
2022-10-29T18:05:23.395Z,13.80
2022-10-29T18:07:51.393Z,13.47
2022-10-29T18:10:20.754Z,12.47
2022-10-29T18:12:49.204Z,14.20
2022-10-29T18:15:17.625Z,26.30
2022-10-29T18:17:45.693Z,22.10
2022-10-29T18:20:13.775Z,16.33
2022-10-29T18:22:41.986Z,14.60
2022-10-29T18:25:10.819Z,15.87
2022-10-29T18:27:40.417Z,19.43
2022-10-29T18:30:10.062Z,17.57
2022-10-29T18:32:38.346Z,17.50
2022-10-29T18:35:07.484Z,17.10
2022-10-29T18:37:35.458Z,20.00
2022-10-29T18:40:03.553Z,20.20
2022-10-29T18:42:31.517Z,18.40
2022-10-29T18:45:00.869Z,17.27
2022-10-29T18:47:28.838Z,17.77
2022-10-29T18:49:56.855Z,16.60
2022-10-29T18:52:24.812Z,15.20
2022-10-29T18:54:52.803Z,17.57
2022-10-29T18:57:20.836Z,16.10
2022-10-29T18:59:49.027Z,17.37
2022-10-29T19:02:18.467Z,16.80
2022-10-29T19:04:46.659Z,18.90
2022-10-29T19:07:14.611Z,22.13
2022-10-29T19:09:42.595Z,21.83
2022-10-29T19:12:12.761Z,16.67
2022-10-29T19:14:40.833Z,21.10
2022-10-29T19:17:08.959Z,21.50
2022-10-29T19:19:38.401Z,15.27
2022-10-29T19:22:06.390Z,14.00
2022-10-29T19:24:34.330Z,16.83
2022-10-29T19:27:02.414Z,18.90
2022-10-29T19:29:30.556Z,15.90
2022-10-29T19:31:58.556Z,16.07
2022-10-29T19:34:26.495Z,15.70
2022-10-29T19:36:55.890Z,16.23
2022-10-29T19:39:33.622Z,15.20
2022-10-29T19:42:01.691Z,17.80
2022-10-29T19:44:29.659Z,18.07
2022-10-29T19:46:57.847Z,17.10
2022-10-29T19:49:25.793Z,17.53
2022-10-29T19:51:56.416Z,20.10
2022-10-29T19:54:24.594Z,18.80
2022-10-29T19:56:52.654Z,16.80
2022-10-29T19:59:20.614Z,18.90
2022-10-29T20:01:48.834Z,15.73
2022-10-29T20:04:17.299Z,17.07
2022-10-29T20:06:45.615Z,18.93
2022-10-29T20:09:15.186Z,30.33
2022-10-29T20:11:43.282Z,24.27
2022-10-29T20:14:11.342Z,22.67
2022-10-29T20:16:40.421Z,16.63
2022-10-29T20:19:08.824Z,16.80
2022-10-29T20:21:36.842Z,11.77
2022-10-29T20:24:05.217Z,13.77
2022-10-29T20:26:34.874Z,18.00
2022-10-29T20:29:02.812Z,14.30
2022-10-29T20:31:33.764Z,13.83
2022-10-29T20:34:03.943Z,17.20
2022-10-29T20:36:34.734Z,14.20
2022-10-29T20:39:03.202Z,17.10
2022-10-29T20:41:31.441Z,17.03
2022-10-29T20:44:02.275Z,18.53
2022-10-29T20:46:30.720Z,15.70
2022-10-29T20:48:58.940Z,18.27
2022-10-29T20:51:27.136Z,19.70
2022-10-29T20:53:55.883Z,15.57
2022-10-29T20:56:26.852Z,17.37
2022-10-29T20:58:55.304Z,14.50
2022-10-29T21:01:26.086Z,16.93
2022-10-29T21:03:54.564Z,14.03
2022-10-29T21:06:22.879Z,15.13
2022-10-29T21:08:52.511Z,14.03
2022-10-29T21:11:22.250Z,15.03
2022-10-29T21:13:50.731Z,14.07
2022-10-29T21:16:21.092Z,13.50
2022-10-29T21:18:52.921Z,15.67
2022-10-29T21:21:20.975Z,12.77
2022-10-29T21:23:51.029Z,14.07
2022-10-29T21:26:20.650Z,13.73
2022-10-29T21:28:49.114Z,10.70
2022-10-29T21:31:17.608Z,12.90
2022-10-29T21:33:45.686Z,12.40
2022-10-29T21:36:15.324Z,11.10
2022-10-29T21:38:43.669Z,11.20
2022-10-29T21:41:12.114Z,10.70
2022-10-29T21:43:40.184Z,11.03
2022-10-29T21:46:09.002Z,11.77
2022-10-29T21:48:37.294Z,12.30
2022-10-29T21:51:07.028Z,13.70
2022-10-29T21:53:36.483Z,12.53
2022-10-29T21:56:06.918Z,10.33
2022-10-29T21:58:36.264Z,14.93
2022-10-29T22:01:06.458Z,10.30
2022-10-29T22:03:35.384Z,11.73
2022-10-29T22:06:05.311Z,12.77
2022-10-29T22:08:33.316Z,14.60
2022-10-29T22:11:03.073Z,11.30
2022-10-29T22:13:32.455Z,13.87
2022-10-29T22:16:00.761Z,10.20
2022-10-29T22:18:29.501Z,15.93
2022-10-29T22:21:05.728Z,9.63
2022-10-29T22:23:33.696Z,11.00
2022-10-29T22:26:04.294Z,10.77
2022-10-29T22:28:32.400Z,12.10
2022-10-29T22:31:01.637Z,14.93
2022-10-29T22:33:30.189Z,12.63
2022-10-29T22:36:05.257Z,10.20
2022-10-29T22:38:33.173Z,16.77
2022-10-29T22:41:06.606Z,15.03
2022-10-29T22:43:34.847Z,14.50
2022-10-29T22:46:03.722Z,11.83
2022-10-29T22:48:31.855Z,9.90
2022-10-29T22:51:01.153Z,8.10
2022-10-29T22:53:29.122Z,13.10
2022-10-29T22:55:57.109Z,9.90
2022-10-29T22:58:26.712Z,9.10
2022-10-29T23:01:03.057Z,14.33
2022-10-29T23:03:31.078Z,11.23
2022-10-29T23:05:59.433Z,12.87
2022-10-29T23:08:27.911Z,8.30
2022-10-29T23:10:56.438Z,12.33
2022-10-29T23:13:25.978Z,14.47
2022-10-29T23:15:54.422Z,9.07
2022-10-29T23:18:22.448Z,9.77
2022-10-29T23:20:58.458Z,10.13
2022-10-29T23:23:26.486Z,9.73
2022-10-29T23:25:57.710Z,10.47
2022-10-29T23:28:27.413Z,9.27
2022-10-29T23:30:55.816Z,10.87
2022-10-29T23:33:24.104Z,7.97
2022-10-29T23:35:52.087Z,10.07
2022-10-29T23:38:20.226Z,9.10
2022-10-29T23:40:48.898Z,10.10
2022-10-29T23:43:16.870Z,9.40
2022-10-29T23:45:46.239Z,9.93
2022-10-29T23:48:14.238Z,9.20
2022-10-29T23:50:42.214Z,10.97
2022-10-29T23:53:10.230Z,10.83
2022-10-29T23:55:38.373Z,11.00
2022-10-29T23:58:06.847Z,11.60
